createdAt,value
2019-03-20T00:00:32.185Z,3.5
2019-03-20T00:01:31.162Z,3.5
2019-03-20T00:02:30.647Z,3.5
2019-03-20T00:03:29.477Z,3.5
2019-03-20T00:04:28.398Z,3.5
2019-03-20T00:04:58.451Z,3.5
2019-03-20T00:05:29.003Z,3.6
2019-03-20T00:05:59.726Z,3.6
2019-03-20T00:06:30.372Z,3.6
2019-03-20T00:07:00.605Z,3.6
2019-03-20T00:07:30.856Z,3.6
2019-03-20T00:08:00.913Z,3.6
2019-03-20T00:08:31.552Z,3.6
2019-03-20T00:09:02.108Z,3.6
2019-03-20T00:09:32.844Z,3.6
2019-03-20T00:10:02.998Z,3.6
2019-03-20T00:11:21.450Z,3.6
2019-03-20T00:12:20.388Z,3.7
2019-03-20T00:13:19.543Z,3.7
2019-03-20T00:14:18.364Z,3.7
2019-03-20T00:15:17.714Z,3.8
2019-03-20T00:15:48.361Z,3.8
2019-03-20T00:16:19.001Z,3.8
2019-03-20T00:16:49.740Z,3.8
2019-03-20T00:17:20.191Z,3.8
2019-03-20T00:17:50.994Z,3.8
2019-03-20T00:18:21.223Z,3.8
2019-03-20T00:18:51.365Z,3.8
2019-03-20T00:19:22.015Z,3.8
2019-03-20T00:19:52.555Z,3.8
2019-03-20T00:21:11.427Z,3.8
2019-03-20T00:22:10.749Z,3.8
2019-03-20T00:23:09.597Z,3.8
2019-03-20T00:24:08.933Z,3.8
2019-03-20T00:25:07.749Z,3.8
2019-03-20T00:26:07.070Z,3.8
2019-03-20T00:26:37.308Z,3.8
2019-03-20T00:27:07.560Z,3.8
2019-03-20T00:28:04.896Z,3.8
2019-03-20T00:29:03.813Z,3.8
2019-03-20T00:30:02.746Z,3.8
2019-03-20T00:30:32.895Z,3.8
2019-03-20T00:31:03.662Z,3.8
2019-03-20T00:31:34.111Z,3.8
2019-03-20T00:32:04.675Z,3.8
2019-03-20T00:32:59.986Z,3.7
2019-03-20T00:33:58.913Z,3.7
2019-03-20T00:35:02.650Z,3.7
2019-03-20T00:36:55.833Z,3.7
2019-03-20T00:37:55.175Z,3.7
2019-03-20T00:38:54.117Z,3.7
2019-03-20T00:39:53.053Z,3.7
2019-03-20T00:40:52.008Z,3.7
2019-03-20T00:41:22.065Z,3.7
2019-03-20T00:41:52.818Z,3.6
2019-03-20T00:42:50.036Z,3.6
2019-03-20T00:43:49.189Z,3.6
2019-03-20T00:44:48.014Z,3.6
2019-03-20T00:45:47.343Z,3.6
2019-03-20T00:46:46.173Z,3.6
2019-03-20T00:47:45.661Z,3.6
2019-03-20T00:48:44.487Z,3.6
2019-03-20T00:49:43.311Z,3.5
2019-03-20T00:50:42.455Z,3.5
2019-03-20T00:51:13.121Z,3.5
2019-03-20T00:51:43.368Z,3.5
2019-03-20T00:52:13.510Z,3.5
2019-03-20T00:52:44.068Z,3.5
2019-03-20T00:53:39.365Z,3.5
2019-03-20T00:54:38.097Z,3.5
2019-03-20T00:55:37.328Z,3.4
2019-03-20T00:56:36.662Z,3.4
2019-03-20T00:57:35.487Z,3.4
2019-03-20T00:58:34.407Z,3.4
2019-03-20T00:59:33.746Z,3.4
2019-03-20T01:00:32.674Z,3.3
2019-03-20T01:01:02.928Z,3.3
2019-03-20T01:01:33.175Z,3.3
2019-03-20T01:02:03.324Z,3.3
2019-03-20T01:03:29.478Z,3.3
2019-03-20T01:05:27.493Z,3.3
2019-03-20T01:06:26.910Z,3.3
2019-03-20T01:07:25.744Z,3.3
2019-03-20T01:08:24.581Z,3.3
2019-03-20T01:09:23.715Z,3.3
2019-03-20T01:10:22.586Z,3.3
2019-03-20T01:10:53.145Z,3.3
2019-03-20T01:11:23.789Z,3.3
2019-03-20T01:11:53.836Z,3.3
2019-03-20T01:12:24.526Z,3.2
2019-03-20T01:12:55.277Z,3.2
2019-03-20T01:14:18.863Z,3.2
2019-03-20T01:15:17.722Z,3.2
2019-03-20T01:16:16.459Z,3.2
2019-03-20T01:17:15.785Z,3.2
2019-03-20T01:18:14.607Z,3.2
2019-03-20T01:19:13.949Z,3.2
2019-03-20T01:20:12.789Z,3.2
2019-03-20T01:20:43.340Z,3.2
2019-03-20T01:21:13.895Z,3.1
2019-03-20T01:21:44.547Z,3.1
2019-03-20T01:22:14.686Z,3.1
2019-03-20T01:22:45.433Z,3.1
2019-03-20T01:23:15.691Z,3.1
2019-03-20T01:23:46.333Z,3.1
2019-03-20T01:25:07.610Z,3
2019-03-20T01:26:06.854Z,3
2019-03-20T01:27:06.305Z,3
2019-03-20T01:28:05.230Z,3
2019-03-20T01:29:04.070Z,3
2019-03-20T01:30:03.004Z,3
2019-03-20T01:30:33.175Z,3
2019-03-20T01:31:03.929Z,3
2019-03-20T01:31:34.587Z,3
2019-03-20T01:32:04.532Z,3
2019-03-20T01:32:35.295Z,3
2019-03-20T01:33:05.491Z,3
2019-03-20T01:33:35.768Z,3
2019-03-20T01:34:58.174Z,2.9
2019-03-20T01:35:56.909Z,2.9
2019-03-20T01:36:56.350Z,2.9
2019-03-20T01:37:55.187Z,2.9
2019-03-20T01:38:54.115Z,2.9
2019-03-20T01:39:52.957Z,2.9
2019-03-20T01:40:23.503Z,2.9
2019-03-20T01:40:54.244Z,2.9
2019-03-20T01:41:24.308Z,2.9
2019-03-20T01:41:54.754Z,2.9
2019-03-20T01:42:25.312Z,2.9
2019-03-20T01:42:55.861Z,2.9
2019-03-20T01:43:26.504Z,2.9
2019-03-20T01:43:57.144Z,2.9
2019-03-20T01:44:27.737Z,2.9
2019-03-20T01:45:47.203Z,2.8
2019-03-20T01:46:46.035Z,2.8
2019-03-20T01:47:45.514Z,2.8
2019-03-20T01:48:44.353Z,2.8
2019-03-20T01:49:43.172Z,2.7
2019-03-20T01:50:13.810Z,2.7
2019-03-20T01:50:44.358Z,2.7
2019-03-20T01:51:15.092Z,2.7
2019-03-20T01:51:45.650Z,2.7
2019-03-20T01:52:16.204Z,2.7
2019-03-20T01:52:46.746Z,2.7
2019-03-20T01:53:17.296Z,2.7
2019-03-20T01:53:47.847Z,2.7
2019-03-20T01:54:18.605Z,2.7
2019-03-20T01:55:37.464Z,2.6
2019-03-20T01:56:36.297Z,2.6
2019-03-20T01:57:35.634Z,2.6
2019-03-20T01:58:34.363Z,2.6
2019-03-20T01:59:33.498Z,2.6
2019-03-20T02:00:32.342Z,2.6
2019-03-20T02:01:03.094Z,2.6
2019-03-20T02:01:33.738Z,2.6
2019-03-20T02:02:03.982Z,2.6
2019-03-20T02:02:34.685Z,2.6
2019-03-20T02:03:04.836Z,2.6
2019-03-20T02:03:35.472Z,2.6
2019-03-20T02:04:06.214Z,2.6
2019-03-20T02:06:26.589Z,2.6
2019-03-20T02:07:25.432Z,2.6
2019-03-20T02:08:24.355Z,2.5
2019-03-20T02:09:23.685Z,2.5
2019-03-20T02:10:22.506Z,2.5
2019-03-20T02:10:53.153Z,2.5
2019-03-20T02:11:23.691Z,2.5
2019-03-20T02:11:54.337Z,2.5
2019-03-20T02:12:25.080Z,2.5
2019-03-20T02:12:55.234Z,2.5
2019-03-20T02:13:25.989Z,2.5
2019-03-20T02:13:56.131Z,2.5
2019-03-20T02:15:17.507Z,2.5
2019-03-20T02:16:16.429Z,2.5
2019-03-20T02:18:14.631Z,2.5
2019-03-20T02:19:13.456Z,2.4
2019-03-20T02:20:12.692Z,2.4
2019-03-20T02:21:11.672Z,2.4
2019-03-20T02:21:41.617Z,2.4
2019-03-20T02:22:12.169Z,2.4
2019-03-20T02:22:42.912Z,2.4
2019-03-20T02:23:13.554Z,2.4
2019-03-20T02:23:43.702Z,2.4
2019-03-20T02:25:07.591Z,2.4
2019-03-20T02:26:06.410Z,2.4
2019-03-20T02:27:05.896Z,2.4
2019-03-20T02:28:04.753Z,2.4
2019-03-20T02:29:03.578Z,2.3
2019-03-20T02:30:02.751Z,2.3
2019-03-20T02:31:01.606Z,2.3
2019-03-20T02:32:00.924Z,2.3
2019-03-20T02:32:31.404Z,2.3
2019-03-20T02:33:02.068Z,2.3
2019-03-20T02:33:32.845Z,2.3
2019-03-20T02:34:58.011Z,2.3
2019-03-20T02:35:56.970Z,2.3
2019-03-20T02:37:54.741Z,2.3
2019-03-20T02:38:53.625Z,2.3
2019-03-20T02:39:52.573Z,2.3
2019-03-20T02:40:52.022Z,2.3
2019-03-20T02:41:50.967Z,2.3
2019-03-20T02:42:49.714Z,2.3
2019-03-20T02:43:20.510Z,2.3
2019-03-20T02:43:50.660Z,2.3
2019-03-20T02:44:47.491Z,2.3
2019-03-20T02:45:46.941Z,2.3
2019-03-20T02:46:45.886Z,2.3
2019-03-20T02:47:44.761Z,2.3
2019-03-20T02:48:43.728Z,2.3
2019-03-20T02:49:42.598Z,2.3
2019-03-20T02:50:42.046Z,2.3
2019-03-20T02:51:40.999Z,2.3
2019-03-20T02:52:39.745Z,2.3
2019-03-20T02:53:10.449Z,2.3
2019-03-20T02:53:40.592Z,2.3
2019-03-20T02:54:38.040Z,2.3
2019-03-20T02:55:36.847Z,2.3
2019-03-20T02:56:35.785Z,2.3
2019-03-20T02:57:34.553Z,2.3
2019-03-20T02:58:05.337Z,2.3
2019-03-20T02:58:35.703Z,2.2
2019-03-20T02:59:32.523Z,2.2
2019-03-20T03:00:31.814Z,2.2
2019-03-20T03:01:30.600Z,2.2
2019-03-20T03:02:29.878Z,2.2
2019-03-20T03:03:28.728Z,2.2
2019-03-20T03:04:27.660Z,2.2
2019-03-20T03:05:27.104Z,2.1
2019-03-20T03:06:25.944Z,2.1
2019-03-20T03:07:25.237Z,2.1
2019-03-20T03:07:55.303Z,2.1
2019-03-20T03:08:25.978Z,2.1
2019-03-20T03:08:56.637Z,2.1
2019-03-20T03:09:27.326Z,2.1
2019-03-20T03:09:57.409Z,2.1
2019-03-20T03:10:28.157Z,2.1
2019-03-20T03:11:20.862Z,2.1
2019-03-20T03:12:19.858Z,2.1
2019-03-20T03:13:18.703Z,2
2019-03-20T03:14:17.450Z,2.1
2019-03-20T03:15:16.834Z,2
2019-03-20T03:16:15.600Z,2
2019-03-20T03:17:14.839Z,2
2019-03-20T03:17:45.385Z,2
2019-03-20T03:18:16.099Z,2
2019-03-20T03:18:46.357Z,2
2019-03-20T03:20:11.978Z,2
2019-03-20T03:21:10.816Z,2
2019-03-20T03:22:09.774Z,2
2019-03-20T03:23:08.751Z,2
2019-03-20T03:24:07.591Z,2
2019-03-20T03:25:06.986Z,2
2019-03-20T03:26:05.866Z,2.1
2019-03-20T03:27:04.832Z,2.1
2019-03-20T03:27:35.520Z,2.1
2019-03-20T03:28:05.784Z,2.1
2019-03-20T03:28:35.970Z,2.1
2019-03-20T03:29:06.736Z,2.1
2019-03-20T03:29:37.000Z,2.1
2019-03-20T03:31:00.679Z,2.1
2019-03-20T03:31:59.644Z,2.1
2019-03-20T03:32:58.234Z,2.1
2019-03-20T03:33:57.866Z,2.1
2019-03-20T03:34:56.837Z,2.1
2019-03-20T03:36:54.581Z,2.3
2019-03-20T03:37:25.089Z,2.3
2019-03-20T03:37:55.850Z,2.3
2019-03-20T03:38:25.961Z,2.3
2019-03-20T03:38:56.537Z,2.2
2019-03-20T03:39:27.232Z,2.2
2019-03-20T03:39:58.005Z,2.3
2019-03-20T03:40:28.200Z,2.3
2019-03-20T03:41:49.634Z,2.3
2019-03-20T03:42:48.674Z,2.3
2019-03-20T03:43:47.635Z,2.2
2019-03-20T03:44:46.596Z,2.3
2019-03-20T03:45:46.040Z,2.3
2019-03-20T03:46:44.926Z,2.2
2019-03-20T03:47:15.021Z,2.2
2019-03-20T03:47:45.655Z,2.2
2019-03-20T03:48:16.331Z,2.2
2019-03-20T03:48:47.095Z,2.2
2019-03-20T03:49:17.555Z,2.2
2019-03-20T03:49:48.333Z,2.2
2019-03-20T03:50:18.530Z,2.2
2019-03-20T03:51:39.541Z,2.2
2019-03-20T03:52:39.039Z,2.2
2019-03-20T03:53:37.997Z,2.2
2019-03-20T03:54:36.952Z,2.2
2019-03-20T03:55:35.931Z,2.2
2019-03-20T03:56:34.886Z,2.2
2019-03-20T03:57:05.063Z,2.2
2019-03-20T03:57:35.519Z,2.2
2019-03-20T03:58:06.216Z,2.2
2019-03-20T03:58:36.373Z,2.2
2019-03-20T03:59:07.143Z,2.2
2019-03-20T03:59:37.404Z,2.2
2019-03-20T04:00:08.111Z,2.2
2019-03-20T04:00:38.300Z,2.2
2019-03-20T04:01:09.054Z,2.2
2019-03-20T04:02:28.560Z,2.3
2019-03-20T04:03:27.449Z,2.2
2019-03-20T04:04:26.879Z,2.3
2019-03-20T04:05:25.726Z,2.3
2019-03-20T04:06:37.168Z,2.3
2019-03-20T04:06:55.344Z,2.3
2019-03-20T04:07:25.734Z,2.3
2019-03-20T04:07:55.786Z,2.3
2019-03-20T04:08:26.546Z,2.2
2019-03-20T04:08:56.714Z,2.2
2019-03-20T04:09:27.459Z,2.2
2019-03-20T04:09:57.605Z,2.2
2019-03-20T04:10:28.068Z,2.2
2019-03-20T04:10:58.743Z,2.2
2019-03-20T04:12:18.829Z,2.2
2019-03-20T04:13:17.768Z,2.2
2019-03-20T04:14:16.426Z,2.2
2019-03-20T04:15:15.995Z,2.2
2019-03-20T04:16:14.419Z,2.2
2019-03-20T04:17:13.858Z,2.2
2019-03-20T04:17:44.139Z,2.2
2019-03-20T04:18:14.453Z,2.2
2019-03-20T04:18:44.744Z,2.2
2019-03-20T04:19:15.006Z,2.1
2019-03-20T04:19:45.568Z,2.1
2019-03-20T04:20:16.160Z,2.1
2019-03-20T04:20:46.930Z,2.1
2019-03-20T04:22:08.246Z,2.1
2019-03-20T04:23:07.710Z,2.1
2019-03-20T04:24:06.551Z,2.1
2019-03-20T04:26:04.909Z,2
2019-03-20T04:27:03.802Z,2
2019-03-20T04:27:34.009Z,2
2019-03-20T04:28:04.412Z,2
2019-03-20T04:28:34.667Z,2
2019-03-20T04:29:05.356Z,2
2019-03-20T04:29:35.612Z,2
2019-03-20T04:30:05.791Z,2
2019-03-20T04:30:36.587Z,2
2019-03-20T04:31:58.672Z,2
2019-03-20T04:32:57.418Z,2
2019-03-20T04:33:58.954Z,1.9
2019-03-20T04:34:55.382Z,1.9
2019-03-20T04:35:54.882Z,1.9
2019-03-20T04:36:53.319Z,1.9
2019-03-20T04:37:52.699Z,1.8
2019-03-20T04:38:23.457Z,1.8
2019-03-20T04:38:53.659Z,1.8
2019-03-20T04:39:23.812Z,1.8
2019-03-20T04:39:54.461Z,1.8
2019-03-20T04:40:25.210Z,1.8
2019-03-20T04:41:48.211Z,1.7
2019-03-20T04:42:47.485Z,1.7
2019-03-20T04:43:46.314Z,1.7
2019-03-20T04:44:45.645Z,1.7
2019-03-20T04:45:44.480Z,1.7
2019-03-20T04:46:43.306Z,1.6
2019-03-20T04:47:42.585Z,1.6
2019-03-20T04:48:41.453Z,1.6
2019-03-20T04:49:12.126Z,1.6
2019-03-20T04:49:42.268Z,1.6
2019-03-20T04:50:12.968Z,1.6
2019-03-20T04:50:43.111Z,1.6
2019-03-20T04:51:13.748Z,1.6
2019-03-20T04:51:44.251Z,1.6
2019-03-20T04:52:37.443Z,1.5
2019-03-20T04:53:36.368Z,1.5
2019-03-20T04:54:35.204Z,1.5
2019-03-20T04:55:34.527Z,1.5
2019-03-20T04:56:33.254Z,1.5
2019-03-20T04:57:32.391Z,1.5
2019-03-20T04:58:31.220Z,1.6
2019-03-20T04:59:01.759Z,1.6
2019-03-20T04:59:32.398Z,1.6
2019-03-20T05:00:02.954Z,1.6
2019-03-20T05:00:33.727Z,1.6
2019-03-20T05:01:03.832Z,1.6
2019-03-20T05:01:34.276Z,1.6
2019-03-20T05:02:27.167Z,1.6
2019-03-20T05:03:26.393Z,1.6
2019-03-20T05:04:25.338Z,1.6
2019-03-20T05:05:24.171Z,1.6
2019-03-20T05:06:22.894Z,1.6
2019-03-20T05:07:22.332Z,1.5
2019-03-20T05:08:21.155Z,1.5
2019-03-20T05:09:19.999Z,1.5
2019-03-20T05:09:50.755Z,1.5
2019-03-20T05:10:20.903Z,1.5
2019-03-20T05:11:17.935Z,1.5
2019-03-20T05:12:17.322Z,1.5
2019-03-20T05:13:15.857Z,1.5
2019-03-20T05:14:15.293Z,1.4
2019-03-20T05:14:45.534Z,1.4
2019-03-20T05:15:15.585Z,1.4
2019-03-20T05:16:12.906Z,1.4
2019-03-20T05:17:12.329Z,1.4
2019-03-20T05:18:11.058Z,1.4
2019-03-20T05:19:09.899Z,1.4
2019-03-20T05:20:09.139Z,1.4
2019-03-20T05:21:07.861Z,1.4
2019-03-20T05:22:07.106Z,1.4
2019-03-20T05:23:08.316Z,1.4
2019-03-20T05:24:04.937Z,1.4
2019-03-20T05:24:35.085Z,1.4
2019-03-20T05:26:03.104Z,1.3
2019-03-20T05:27:01.827Z,1.3
2019-03-20T05:28:01.060Z,1.3
2019-03-20T05:28:59.887Z,1.3
2019-03-20T05:29:59.231Z,1.3
2019-03-20T05:30:57.978Z,1.3
2019-03-20T05:31:56.816Z,1.3
2019-03-20T05:32:56.142Z,1.2
2019-03-20T05:33:54.965Z,1.2
2019-03-20T05:34:25.708Z,1.2
2019-03-20T05:34:56.263Z,1.3
2019-03-20T05:35:26.883Z,1.3
2019-03-20T05:36:51.888Z,1.3
2019-03-20T05:37:50.520Z,1.2
2019-03-20T05:38:49.953Z,1.2
2019-03-20T05:39:48.890Z,1.2
2019-03-20T05:40:47.614Z,1.2
2019-03-20T05:41:46.943Z,1.3
2019-03-20T05:42:45.878Z,1.3
2019-03-20T05:43:44.812Z,1.2
2019-03-20T05:44:15.450Z,1.2
2019-03-20T05:44:45.683Z,1.2
2019-03-20T05:45:15.921Z,1.2
2019-03-20T05:45:46.062Z,1.2
2019-03-20T05:46:16.707Z,1.2
2019-03-20T05:47:40.699Z,1.2
2019-03-20T05:48:39.624Z,1.3
2019-03-20T05:49:38.868Z,1.3
2019-03-20T05:50:37.597Z,1.3
2019-03-20T05:51:37.038Z,1.3
2019-03-20T05:52:35.669Z,1.4
2019-03-20T05:53:34.294Z,1.4
2019-03-20T05:54:04.941Z,1.4
2019-03-20T05:54:35.612Z,1.4
2019-03-20T05:55:06.304Z,1.4
2019-03-20T05:55:36.333Z,1.4
2019-03-20T05:56:06.895Z,1.4
2019-03-20T05:56:37.552Z,1.5
2019-03-20T05:57:08.002Z,1.5
2019-03-20T05:58:29.474Z,1.5
2019-03-20T05:59:28.904Z,1.5
2019-03-20T06:00:27.731Z,1.6
2019-03-20T06:01:26.512Z,1.7
2019-03-20T06:02:27.116Z,1.7
2019-03-20T06:03:24.337Z,1.7
2019-03-20T06:03:54.985Z,1.7
2019-03-20T06:04:25.541Z,1.7
2019-03-20T06:04:56.014Z,1.7
2019-03-20T06:05:26.554Z,1.7
2019-03-20T06:05:57.198Z,1.7
2019-03-20T06:06:27.931Z,1.7
2019-03-20T06:06:58.070Z,1.7
2019-03-20T06:08:19.644Z,1.7
2019-03-20T06:09:18.578Z,1.7
2019-03-20T06:10:17.478Z,1.7
2019-03-20T06:11:16.311Z,1.7
2019-03-20T06:12:15.141Z,1.7
2019-03-20T06:13:14.475Z,1.6
2019-03-20T06:13:45.113Z,1.6
2019-03-20T06:14:15.746Z,1.6
2019-03-20T06:14:46.483Z,1.6
2019-03-20T06:15:17.044Z,1.6
2019-03-20T06:15:47.782Z,1.6
2019-03-20T06:16:18.037Z,1.6
2019-03-20T06:16:48.488Z,1.6
2019-03-20T06:17:19.140Z,1.6
2019-03-20T06:17:49.893Z,1.6
2019-03-20T06:19:08.459Z,1.5
2019-03-20T06:20:07.202Z,1.5
2019-03-20T06:21:06.124Z,1.5
2019-03-20T06:22:05.466Z,1.5
2019-03-20T06:24:03.083Z,1.5
2019-03-20T06:24:33.826Z,1.5
2019-03-20T06:25:03.941Z,1.5
2019-03-20T06:25:34.549Z,1.5
2019-03-20T06:26:05.222Z,1.5
2019-03-20T06:26:35.890Z,1.5
2019-03-20T06:27:06.634Z,1.5
2019-03-20T06:27:36.878Z,1.5
2019-03-20T06:28:58.296Z,1.6
2019-03-20T06:29:57.020Z,1.6
2019-03-20T06:30:56.262Z,1.6
2019-03-20T06:31:54.994Z,1.6
2019-03-20T06:32:54.226Z,1.6
2019-03-20T06:33:53.156Z,1.6
2019-03-20T06:34:23.309Z,1.6
2019-03-20T06:34:53.954Z,1.6
2019-03-20T06:35:24.509Z,1.6
2019-03-20T06:35:54.951Z,1.6
2019-03-20T06:36:25.682Z,1.6
2019-03-20T06:36:55.834Z,1.7
2019-03-20T06:37:33.914Z,1.7
2019-03-20T06:38:47.748Z,1.7
2019-03-20T06:39:46.978Z,1.7
2019-03-20T06:40:46.105Z,1.7
2019-03-20T06:41:44.926Z,1.7
2019-03-20T06:42:44.313Z,1.8
2019-03-20T06:43:43.242Z,1.8
2019-03-20T06:44:13.278Z,1.8
2019-03-20T06:44:43.827Z,1.8
2019-03-20T06:45:14.463Z,1.8
2019-03-20T06:45:45.102Z,1.8
2019-03-20T06:46:15.656Z,1.8
2019-03-20T06:46:46.410Z,1.8
2019-03-20T06:47:16.545Z,1.8
2019-03-20T06:48:37.914Z,1.9
2019-03-20T06:49:36.681Z,1.9
2019-03-20T06:50:35.916Z,1.9
2019-03-20T06:51:34.645Z,2
2019-03-20T06:52:33.975Z,2
2019-03-20T06:53:32.703Z,2
2019-03-20T06:54:31.338Z,2.1
2019-03-20T06:55:02.734Z,2.1
2019-03-20T06:55:32.477Z,2.1
2019-03-20T06:56:02.621Z,2.1
2019-03-20T06:56:33.370Z,2.2
2019-03-20T06:57:03.590Z,2.2
2019-03-20T06:58:27.686Z,2.2
2019-03-20T06:59:26.414Z,2.3
2019-03-20T07:00:25.851Z,2.3
2019-03-20T07:01:24.693Z,2.3
2019-03-20T07:02:23.617Z,2.3
2019-03-20T07:03:22.541Z,2.4
2019-03-20T07:04:21.781Z,2.4
2019-03-20T07:05:20.705Z,2.4
2019-03-20T07:05:50.948Z,2.4
2019-03-20T07:06:21.208Z,2.5
2019-03-20T07:06:51.257Z,2.5
2019-03-20T07:07:21.699Z,2.5
2019-03-20T07:09:16.800Z,2.5
2019-03-20T07:10:15.631Z,2.6
2019-03-20T07:11:14.554Z,2.6
2019-03-20T07:12:13.182Z,2.6
2019-03-20T07:13:12.610Z,2.6
2019-03-20T07:14:11.445Z,2.7
2019-03-20T07:15:10.774Z,2.7
2019-03-20T07:15:41.423Z,2.7
2019-03-20T07:16:11.676Z,2.7
2019-03-20T07:16:41.944Z,2.7
2019-03-20T07:17:11.891Z,2.7
2019-03-20T07:18:07.719Z,2.7
2019-03-20T07:19:06.443Z,2.8
2019-03-20T07:20:05.877Z,2.8
2019-03-20T07:21:04.810Z,2.8
2019-03-20T07:22:03.738Z,2.9
2019-03-20T07:23:02.667Z,2.9
2019-03-20T07:24:01.290Z,2.9
2019-03-20T07:25:00.593Z,2.9
2019-03-20T07:25:59.510Z,2.9
2019-03-20T07:26:30.044Z,2.9
2019-03-20T07:27:00.190Z,3
2019-03-20T07:27:57.607Z,3
2019-03-20T07:28:56.393Z,3
2019-03-20T07:29:55.728Z,3
2019-03-20T07:30:54.470Z,3.1
2019-03-20T07:31:24.928Z,3.1
2019-03-20T07:31:55.481Z,3.1
2019-03-20T07:32:52.391Z,3.2
2019-03-20T07:33:51.721Z,3.2
2019-03-20T07:34:50.362Z,3.3
2019-03-20T07:35:49.592Z,3.3
2019-03-20T07:36:48.416Z,3.3
2019-03-20T07:37:57.488Z,3.3
2019-03-20T07:38:46.756Z,3.3
2019-03-20T07:39:45.604Z,3.4
2019-03-20T07:40:44.586Z,3.4
2019-03-20T07:41:14.761Z,3.4
2019-03-20T07:42:42.386Z,3.5
2019-03-20T07:43:41.662Z,3.5
2019-03-20T07:44:40.403Z,3.6
2019-03-20T07:45:39.730Z,3.6
2019-03-20T07:46:38.466Z,3.6
2019-03-20T07:47:37.792Z,3.7
2019-03-20T07:48:36.619Z,3.7
2019-03-20T07:49:35.442Z,3.8
2019-03-20T07:50:34.576Z,3.8
2019-03-20T07:51:05.325Z,3.8
2019-03-20T07:51:35.617Z,3.9
2019-03-20T07:52:05.868Z,3.9
2019-03-20T07:53:31.293Z,4
2019-03-20T07:54:30.722Z,4
2019-03-20T07:55:29.448Z,4
2019-03-20T07:57:27.658Z,4
2019-03-20T07:58:26.544Z,4.1
2019-03-20T07:59:25.500Z,4.1
2019-03-20T08:00:24.750Z,4.1
2019-03-20T08:00:55.311Z,4.1
2019-03-20T08:01:25.761Z,4.2
2019-03-20T08:01:56.541Z,4.2
2019-03-20T08:02:27.101Z,4.4
2019-03-20T08:02:57.764Z,4.4
2019-03-20T08:04:20.757Z,4.4
2019-03-20T08:05:30.705Z,4.5
2019-03-20T08:06:18.562Z,4.5
2019-03-20T08:07:17.900Z,4.6
2019-03-20T08:08:16.538Z,4.7
2019-03-20T08:09:16.161Z,4.7
2019-03-20T08:10:14.587Z,4.8
2019-03-20T08:10:44.831Z,4.8
2019-03-20T08:11:14.979Z,4.8
2019-03-20T08:11:45.625Z,4.8
2019-03-20T08:12:16.073Z,4.8
2019-03-20T08:12:46.720Z,4.8
2019-03-20T08:14:10.616Z,4.9
2019-03-20T08:15:09.743Z,4.9
2019-03-20T08:16:09.003Z,4.9
2019-03-20T08:17:07.834Z,4.9
2019-03-20T08:18:07.167Z,5
2019-03-20T08:19:06.003Z,5
2019-03-20T08:20:04.839Z,5.1
2019-03-20T08:20:34.983Z,5.1
2019-03-20T08:21:05.533Z,5.1
2019-03-20T08:21:36.177Z,5.1
2019-03-20T08:22:06.814Z,5.2
2019-03-20T08:22:36.760Z,5.2
2019-03-20T08:23:07.021Z,5.2
2019-03-20T08:23:37.620Z,5.2
2019-03-20T08:24:59.928Z,5.1
2019-03-20T08:25:59.070Z,5.1
2019-03-20T08:26:57.997Z,5.1
2019-03-20T08:27:56.841Z,5.1
2019-03-20T08:28:56.178Z,5.2
2019-03-20T08:29:55.024Z,5.2
2019-03-20T08:30:25.571Z,5.2
2019-03-20T08:30:56.283Z,5.2
2019-03-20T08:31:26.214Z,5.2
2019-03-20T08:31:56.957Z,5.2
2019-03-20T08:32:27.096Z,5.2
2019-03-20T08:32:57.647Z,5.2
2019-03-20T08:33:28.187Z,5.2
2019-03-20T08:33:58.836Z,5.3
2019-03-20T08:34:29.485Z,5.3
2019-03-20T08:35:49.452Z,5.3
2019-03-20T08:36:48.086Z,5.3
2019-03-20T08:37:47.457Z,5.4
2019-03-20T08:38:46.179Z,5.4
2019-03-20T08:39:45.610Z,5.5
2019-03-20T08:40:15.665Z,5.5
2019-03-20T08:40:46.320Z,5.6
2019-03-20T08:41:16.865Z,5.6
2019-03-20T08:41:47.411Z,5.7
2019-03-20T08:42:17.947Z,5.7
2019-03-20T08:42:48.688Z,5.7
2019-03-20T08:43:18.934Z,5.7
2019-03-20T08:43:48.981Z,5.7
2019-03-20T08:44:19.522Z,5.7
2019-03-20T08:45:39.496Z,5.8
2019-03-20T08:46:38.527Z,5.8
2019-03-20T08:47:37.852Z,5.8
2019-03-20T08:48:36.678Z,5.9
2019-03-20T08:49:35.496Z,5.9
2019-03-20T08:50:34.925Z,6.1
2019-03-20T08:51:05.060Z,6.1
2019-03-20T08:51:35.315Z,6.2
2019-03-20T08:52:05.973Z,6.2
2019-03-20T08:52:36.630Z,6.3
2019-03-20T08:53:07.277Z,6.3
2019-03-20T08:53:37.413Z,6.4
2019-03-20T08:54:08.152Z,6.4
2019-03-20T08:56:29.013Z,6.5
2019-03-20T08:57:27.798Z,6.5
2019-03-20T08:58:27.127Z,6.6
2019-03-20T08:59:25.968Z,6.6
2019-03-20T09:00:25.318Z,6.6
2019-03-20T09:01:30.249Z,6.7
2019-03-20T09:01:54.753Z,6.7
2019-03-20T09:02:25.389Z,6.8
2019-03-20T09:02:56.051Z,6.8
2019-03-20T09:03:26.795Z,6.8
2019-03-20T09:03:56.869Z,6.8
2019-03-20T09:05:20.411Z,6.8
2019-03-20T09:06:19.330Z,6.8
2019-03-20T09:07:18.169Z,6.8
2019-03-20T09:08:28.439Z,6.8
2019-03-20T09:09:16.514Z,6.8
2019-03-20T09:10:15.344Z,6.9
2019-03-20T09:11:14.767Z,6.9
2019-03-20T09:11:45.008Z,6.9
2019-03-20T09:12:15.257Z,7
2019-03-20T09:12:45.197Z,7
2019-03-20T09:13:15.759Z,7
2019-03-20T09:13:46.312Z,7
2019-03-20T09:15:10.810Z,7
2019-03-20T09:16:10.014Z,7.1
2019-03-20T09:17:08.837Z,7.1
2019-03-20T09:18:08.331Z,7.2
2019-03-20T09:19:07.181Z,7.2
2019-03-20T09:20:05.907Z,7.2
2019-03-20T09:21:05.150Z,7.2
2019-03-20T09:22:04.023Z,7.3
2019-03-20T09:22:34.467Z,7.3
2019-03-20T09:24:02.490Z,7.3
2019-03-20T09:25:01.257Z,7.3
2019-03-20T09:26:00.488Z,7.4
2019-03-20T09:26:59.313Z,7.5
2019-03-20T09:27:58.511Z,7.5
2019-03-20T09:28:57.337Z,7.5
2019-03-20T09:29:56.681Z,7.6
2019-03-20T09:30:55.319Z,7.6
2019-03-20T09:31:54.750Z,7.6
2019-03-20T09:32:53.475Z,7.6
2019-03-20T09:33:24.135Z,7.6
2019-03-20T09:33:55.527Z,7.7
2019-03-20T09:34:51.779Z,7.7
2019-03-20T09:35:51.117Z,7.7
2019-03-20T09:36:50.040Z,7.8
2019-03-20T09:37:53.918Z,7.7
2019-03-20T09:38:19.738Z,7.7
2019-03-20T09:38:50.375Z,7.7
2019-03-20T09:39:47.187Z,7.7
2019-03-20T09:40:46.319Z,7.7
2019-03-20T09:41:45.660Z,7.7
2019-03-20T09:42:44.298Z,7.7
2019-03-20T09:43:43.720Z,7.8
2019-03-20T09:44:42.580Z,7.8
2019-03-20T09:45:41.825Z,7.8
2019-03-20T09:46:40.650Z,7.8
2019-03-20T09:47:39.888Z,7.9
2019-03-20T09:48:10.402Z,7.9
2019-03-20T09:49:37.909Z,7.9
2019-03-20T09:50:37.138Z,7.9
2019-03-20T09:51:35.960Z,7.9
2019-03-20T09:52:35.287Z,7.9
2019-03-20T09:53:34.111Z,8
2019-03-20T09:54:33.540Z,8
2019-03-20T09:55:32.266Z,8
2019-03-20T09:56:31.494Z,8.1
2019-03-20T09:57:30.332Z,8.1
2019-03-20T09:58:12.749Z,8.1
2019-03-20T09:58:31.402Z,8.1
2019-03-20T09:59:01.635Z,8.1
2019-03-20T10:00:27.777Z,8.1
2019-03-20T10:01:27.017Z,8
2019-03-20T10:02:25.955Z,8.1
2019-03-20T10:03:24.784Z,8.2
2019-03-20T10:04:24.054Z,8.3
2019-03-20T10:05:23.498Z,8.3
2019-03-20T10:06:22.227Z,8.3
2019-03-20T10:07:21.460Z,8.4
2019-03-20T10:08:20.288Z,8.5
2019-03-20T10:08:55.471Z,8.5
2019-03-20T10:09:21.391Z,8.5
2019-03-20T10:09:52.130Z,8.5
2019-03-20T10:11:17.632Z,8.3
2019-03-20T10:12:16.860Z,8.4
2019-03-20T10:13:16.234Z,8.5
2019-03-20T10:14:14.953Z,8.5
2019-03-20T10:15:13.776Z,8.5
2019-03-20T10:16:13.111Z,8.4
2019-03-20T10:17:11.935Z,8.5
2019-03-20T10:17:42.474Z,8.5
2019-03-20T10:18:13.116Z,8.4
2019-03-20T10:18:43.808Z,8.4
2019-03-20T10:19:14.053Z,8.4
2019-03-20T10:19:44.605Z,8.4
2019-03-20T10:20:15.245Z,8.4
2019-03-20T10:20:45.887Z,8.4
2019-03-20T10:22:07.863Z,8.4
2019-03-20T10:23:06.584Z,8.5
2019-03-20T10:24:05.940Z,8.4
2019-03-20T10:25:04.666Z,8.4
2019-03-20T10:26:04.109Z,8.4
2019-03-20T10:27:03.039Z,8.5
2019-03-20T10:27:33.283Z,8.5
2019-03-20T10:28:03.516Z,8.5
2019-03-20T10:28:33.799Z,8.5
2019-03-20T10:29:04.063Z,8.5
2019-03-20T10:29:34.517Z,8.5
2019-03-20T10:30:05.271Z,8.6
2019-03-20T10:30:35.414Z,8.6
2019-03-20T10:31:06.169Z,8.6
2019-03-20T10:31:36.440Z,8.6
2019-03-20T10:32:57.425Z,8.6
2019-03-20T10:33:56.465Z,8.5
2019-03-20T10:34:55.904Z,8.6
2019-03-20T10:35:54.817Z,8.7
2019-03-20T10:36:54.062Z,8.7
2019-03-20T10:37:52.801Z,8.7
2019-03-20T10:38:23.360Z,8.7
2019-03-20T10:39:07.329Z,8.7
2019-03-20T10:39:24.411Z,8.7
2019-03-20T10:39:54.976Z,8.7
2019-03-20T10:40:25.633Z,8.7
2019-03-20T10:40:56.377Z,8.7
2019-03-20T10:41:26.616Z,8.7
2019-03-20T10:41:56.758Z,8.8
2019-03-20T10:42:27.460Z,8.8
2019-03-20T10:43:47.516Z,8.7
2019-03-20T10:44:46.654Z,8.7
2019-03-20T10:45:46.092Z,8.8
2019-03-20T10:46:45.034Z,8.7
2019-03-20T10:47:43.887Z,8.8
2019-03-20T10:48:14.545Z,8.8
2019-03-20T10:48:45.191Z,8.8
2019-03-20T10:49:15.755Z,8.8
2019-03-20T10:49:46.437Z,8.8
2019-03-20T10:50:17.090Z,8.8
2019-03-20T10:50:47.645Z,8.9
2019-03-20T10:51:18.299Z,8.9
2019-03-20T10:51:48.913Z,9
2019-03-20T10:52:19.078Z,9
2019-03-20T10:53:38.559Z,9
2019-03-20T10:54:37.817Z,9
2019-03-20T10:55:36.644Z,9.1
2019-03-20T10:56:35.995Z,9.1
2019-03-20T10:57:34.742Z,9.1
2019-03-20T10:58:34.168Z,9
2019-03-20T10:59:04.822Z,9
2019-03-20T10:59:35.076Z,9
2019-03-20T11:00:05.447Z,9
2019-03-20T11:00:36.190Z,8.9
2019-03-20T11:01:06.361Z,8.9
2019-03-20T11:01:43.971Z,8.9
2019-03-20T11:02:07.555Z,8.9
2019-03-20T11:03:29.656Z,9
2019-03-20T11:04:28.403Z,9.1
2019-03-20T11:05:27.648Z,9.1
2019-03-20T11:06:27.092Z,9.1
2019-03-20T11:07:25.933Z,9.1
2019-03-20T11:08:25.226Z,9.1
2019-03-20T11:09:24.163Z,9.1
2019-03-20T11:09:54.038Z,9.1
2019-03-20T11:10:24.714Z,9.1
2019-03-20T11:10:55.362Z,9.1
2019-03-20T11:11:28.506Z,9.1
2019-03-20T11:11:56.213Z,9.1
2019-03-20T11:13:20.629Z,9.1